Time;durP1;ratioP1;P1;durP2;ratioP2;P2;SDS_P1;SDS_P2;PMS_P1;PMS_P2;Temp;Humidity;BMP_temperature;BMP_pressure;BME280_temperature;BME280_humidity;BME280_pressure;Samples;Min_cycle;Max_cycle;Signal;HPM_P1;HPM_P2
2023/10/12 00:01:25;;;;;;;17.45;11.70;;;17.90;94.40;;;;;;4954794;29;20321;-79
2023/10/12 00:03:58;;;;;;;19.98;11.13;;;17.80;94.60;;;;;;4955032;29;20032;-79
2023/10/12 00:06:30;;;;;;;14.52;10.40;;;17.80;94.70;;;;;;4953438;29;20130;-79
2023/10/12 00:08:56;;;;;;;17.23;10.73;;;17.80;94.70;;;;;;4954949;29;20483;-79
2023/10/12 00:11:21;;;;;;;16.17;10.30;;;17.80;94.70;;;;;;4954916;29;20035;-80
2023/10/12 00:13:51;;;;;;;18.30;11.20;;;17.80;94.70;;;;;;4955002;29;20067;-78
2023/10/12 00:16:19;;;;;;;18.98;11.65;;;17.70;94.90;;;;;;4955053;29;20130;-79
2023/10/12 00:18:49;;;;;;;25.77;14.07;;;17.80;95.10;;;;;;4954629;29;20035;-79
2023/10/12 00:21:18;;;;;;;19.77;12.85;;;17.70;95.40;;;;;;4937707;29;20043;-80
2023/10/12 00:23:45;;;;;;;21.40;13.23;;;17.70;95.70;;;;;;4956934;28;20035;-80
2023/10/12 00:26:11;;;;;;;20.10;11.95;;;17.70;95.70;;;;;;4961156;29;20047;-81
2023/10/12 00:28:44;;;;;;;27.30;13.73;;;17.70;95.80;;;;;;4943858;29;20035;-80
2023/10/12 00:31:18;;;;;;;24.83;13.55;;;17.70;96.00;;;;;;4961230;29;20585;-80
2023/10/12 00:33:44;;;;;;;;;;;17.70;96.30;;;;;;4961753;29;20031;-81
2023/10/12 00:36:22;;;;;;;27.80;14.38;;;17.60;96.70;;;;;;4961207;29;19914;-79
2023/10/12 00:38:49;;;;;;;28.33;14.82;;;17.60;96.90;;;;;;4961251;29;20115;-80
2023/10/12 00:41:17;;;;;;;22.92;13.60;;;17.60;96.90;;;;;;4961280;29;20484;-80
2023/10/12 00:49:22;;;;;;;24.23;12.88;;;17.50;97.20;;;;;;4961173;29;20098;-80
2023/10/12 00:51:51;;;;;;;19.05;12.65;;;17.60;97.30;;;;;;4960959;28;20115;-80
2023/10/12 00:54:26;;;;;;;23.85;14.45;;;17.50;97.50;;;;;;4960878;29;20035;-79
2023/10/12 00:56:57;;;;;;;25.98;16.00;;;17.50;97.90;;;;;;4960586;29;20035;-77
2023/10/12 00:59:23;;;;;;;26.27;15.00;;;17.50;98.20;;;;;;4959644;28;20039;-79
2023/10/12 01:01:49;;;;;;;23.23;14.52;;;17.50;98.50;;;;;;4960939;29;20115;-79
2023/10/12 01:04:16;;;;;;;22.70;14.55;;;17.40;98.80;;;;;;4960871;28;20132;-81
2023/10/12 01:06:44;;;;;;;25.10;15.23;;;17.40;98.90;;;;;;4960828;28;20041;-79
2023/10/12 01:09:19;;;;;;;24.10;15.13;;;17.40;99.30;;;;;;4960903;29;20043;-81
2023/10/12 01:12:31;;;;;;;27.98;16.20;;;17.30;99.50;;;;;;4960305;28;20431;-80
2023/10/12 01:14:39;;;;;;;25.35;16.65;;;17.30;99.90;;;;;;4952606;29;20091;-79
2023/10/12 01:17:08;;;;;;;27.05;16.17;;;17.20;99.90;;;;;;4960746;29;20028;-80
2023/10/12 01:19:44;;;;;;;23.00;16.23;;;17.20;99.90;;;;;;4960436;29;20119;-79
2023/10/12 01:22:13;;;;;;;29.05;16.48;;;17.20;99.90;;;;;;4960745;29;20035;-84
2023/10/12 01:27:21;;;;;;;30.85;18.40;;;17.10;99.90;;;;;;4960834;28;20056;-81
2023/10/12 01:29:52;;;;;;;39.17;21.92;;;17.10;99.90;;;;;;4960626;29;20086;-79
2023/10/12 01:34:57;;;;;;;35.72;21.05;;;17.00;99.90;;;;;;4959883;28;20027;-82
2023/10/12 01:37:25;;;;;;;31.98;21.67;;;17.00;99.90;;;;;;4957262;29;20046;-81
2023/10/12 01:43:02;;;;;;;32.95;20.48;;;16.90;99.90;;;;;;4957512;29;20027;-79
2023/10/12 01:47:55;;;;;;;32.83;21.70;;;16.80;99.90;;;;;;4957386;29;20073;-80
2023/10/12 01:50:24;;;;;;;43.20;25.05;;;16.80;99.90;;;;;;4961454;28;20063;-81
2023/10/12 01:52:52;;;;;;;39.72;22.30;;;16.70;99.90;;;;;;4972347;28;20039;-82
2023/10/12 01:55:51;;;;;;;45.15;24.27;;;16.70;99.90;;;;;;4976346;28;20062;-80
2023/10/12 01:58:12;;;;;;;32.55;21.98;;;16.70;99.90;;;;;;4973484;28;20030;-81
2023/10/12 02:00:51;;;;;;;37.90;23.95;;;16.70;99.90;;;;;;4976727;28;20551;-84
2023/10/12 02:03:20;;;;;;;41.33;24.80;;;16.70;99.90;;;;;;4976574;28;20089;-79
2023/10/12 02:05:50;;;;;;;35.97;23.30;;;16.70;99.90;;;;;;4975070;28;20073;-79
2023/10/12 02:08:19;;;;;;;38.45;23.63;;;16.70;99.90;;;;;;4976415;28;20035;-81
2023/10/12 02:10:54;;;;;;;36.58;23.10;;;16.60;99.90;;;;;;4975936;28;20034;-84
2023/10/12 02:13:21;;;;;;;37.67;23.48;;;16.60;99.90;;;;;;4976549;28;20030;-80
2023/10/12 02:15:50;;;;;;;36.90;24.27;;;16.60;99.90;;;;;;4975041;28;20059;-79
2023/10/12 02:18:18;;;;;;;41.33;23.95;;;16.60;99.90;;;;;;4958718;28;20043;-81
2023/10/12 02:21:07;;;;;;;42.28;24.17;;;16.60;99.90;;;;;;4976178;28;20046;-79
2023/10/12 02:29:17;;;;;;;31.02;19.35;;;16.60;99.90;;;;;;4975445;28;20046;-79
2023/10/12 02:34:21;;;;;;;26.27;17.02;;;16.60;99.90;;;;;;4976979;28;20391;-83
2023/10/12 02:39:37;;;;;;;30.00;16.60;;;16.60;99.90;;;;;;4975355;28;20046;-81
2023/10/12 02:42:38;;;;;;;30.05;17.02;;;16.60;99.90;;;;;;4976156;28;20037;-82
2023/10/12 02:47:22;;;;;;;37.15;18.00;;;16.60;99.90;;;;;;4975562;28;20086;-83
2023/10/12 02:50:00;;;;;;;23.98;15.00;;;16.60;99.90;;;;;;4975368;28;20037;-82
2023/10/12 02:52:27;;;;;;;24.23;15.32;;;16.60;99.90;;;;;;4974420;28;20039;-81
2023/10/12 02:54:55;;;;;;;23.08;14.23;;;16.50;99.90;;;;;;4975354;28;20058;-80
2023/10/12 02:57:24;;;;;;;27.25;14.93;;;16.50;99.90;;;;;;4975301;28;20038;-80
2023/10/12 03:02:43;;;;;;;25.63;14.27;;;16.50;99.90;;;;;;4978493;28;20046;-79
2023/10/12 03:05:17;;;;;;;27.85;14.65;;;16.40;99.90;;;;;;4977506;28;20055;-81
2023/10/12 03:07:44;;;;;;;24.75;14.88;;;16.40;99.90;;;;;;4975224;28;20034;-79
2023/10/12 03:10:54;;;;;;;25.05;12.88;;;16.40;99.90;;;;;;4958078;28;20049;-82
2023/10/12 03:13:04;;;;;;;22.55;13.20;;;16.40;99.90;;;;;;4972300;28;20038;-79
2023/10/12 03:15:42;;;;;;;20.13;11.18;;;16.40;99.90;;;;;;4975523;28;20128;-82
2023/10/12 03:18:11;;;;;;;21.95;11.70;;;16.40;99.90;;;;;;4974982;28;20042;-79
2023/10/12 03:20:38;;;;;;;22.67;11.02;;;16.40;99.90;;;;;;4975057;28;20065;-79
2023/10/12 03:23:14;;;;;;;21.75;11.18;;;16.30;99.90;;;;;;4974749;28;20038;-80
2023/10/12 03:25:43;;;;;;;25.20;12.13;;;16.30;99.90;;;;;;4974970;28;20039;-80
2023/10/12 03:28:17;;;;;;;22.45;10.73;;;16.30;99.90;;;;;;4974922;28;20110;-80
2023/10/12 03:30:53;;;;;;;24.30;10.52;;;16.30;99.90;;;;;;4974691;28;20070;-80
2023/10/12 03:33:19;;;;;;;19.85;11.15;;;16.30;99.90;;;;;;4973350;28;20038;-79
2023/10/12 03:35:57;;;;;;;17.88;10.27;;;16.30;99.90;;;;;;4974880;28;20035;-80
2023/10/12 03:38:25;;;;;;;20.83;10.82;;;16.30;99.90;;;;;;4972967;28;20147;-81
2023/10/12 03:41:45;;;;;;;21.13;9.85;;;16.30;99.90;;;;;;4957274;28;20376;-80
2023/10/12 03:43:40;;;;;;;19.83;10.88;;;16.30;99.90;;;;;;4974349;28;20033;-79
2023/10/12 03:46:26;;;;;;;24.33;11.25;;;16.30;99.90;;;;;;4974756;28;20043;-80
2023/10/12 03:51:46;;;;;;;18.10;8.90;;;16.30;99.90;;;;;;4974155;28;20038;-80
2023/10/12 03:54:31;;;;;;;17.65;9.65;;;16.30;99.90;;;;;;4974696;28;20108;-80
2023/10/12 03:57:07;;;;;;;21.80;10.30;;;16.30;99.90;;;;;;4968759;28;20062;-80
2023/10/12 03:59:43;;;;;;;18.67;9.98;;;16.30;99.90;;;;;;4973887;28;20042;-80
2023/10/12 04:02:14;;;;;;;17.75;9.45;;;16.30;99.90;;;;;;4974812;28;20464;-80
2023/10/12 04:04:51;;;;;;;19.92;9.30;;;16.30;99.90;;;;;;4974349;28;20461;-79
2023/10/12 04:07:17;;;;;;;21.80;9.70;;;16.30;99.90;;;;;;4974128;28;20054;-79
2023/10/12 04:09:43;;;;;;;19.05;9.32;;;16.40;99.90;;;;;;4974310;28;20039;-79
2023/10/12 04:14:49;;;;;;;18.80;9.23;;;16.40;99.90;;;;;;4974385;28;20033;-80
2023/10/12 04:17:34;;;;;;;23.35;9.65;;;16.40;99.90;;;;;;4956670;28;20495;-79
2023/10/12 04:25:13;;;;;;;18.98;9.30;;;16.40;99.90;;;;;;4974167;28;20573;-79
2023/10/12 04:27:44;;;;;;;15.82;9.27;;;16.40;99.90;;;;;;4974059;28;20391;-80
2023/10/12 04:30:20;;;;;;;17.05;9.15;;;16.50;99.90;;;;;;4974077;28;20027;-80
2023/10/12 04:43:52;;;;;;;23.02;11.68;;;16.50;99.90;;;;;;4974133;28;20034;-81
2023/10/12 04:48:51;;;;;;;21.02;11.38;;;16.50;99.90;;;;;;4967092;28;20046;-81
2023/10/12 04:51:19;;;;;;;27.58;11.80;;;16.50;99.90;;;;;;4954315;29;20036;-81
2023/10/12 04:53:58;;;;;;;21.55;11.80;;;16.50;99.90;;;;;;4954314;29;20527;-82
2023/10/12 04:56:26;;;;;;;21.90;11.45;;;16.50;99.90;;;;;;4954231;29;20106;-81
2023/10/12 04:58:59;;;;;;;21.42;11.50;;;16.40;99.90;;;;;;4954713;29;20031;-80
2023/10/12 05:01:29;;;;;;;25.83;13.18;;;16.40;99.90;;;;;;4954602;29;20032;-81
2023/10/12 05:04:08;;;;;;;21.95;12.57;;;16.40;99.90;;;;;;4957229;28;20038;-81
2023/10/12 05:06:46;;;;;;;27.73;13.07;;;16.40;99.90;;;;;;4973912;28;20042;-82
2023/10/12 05:09:12;;;;;;;24.15;13.10;;;16.40;99.90;;;;;;4971824;28;20510;-79
2023/10/12 05:11:39;;;;;;;20.05;12.45;;;16.40;99.90;;;;;;4975607;28;20101;-80
2023/10/12 05:14:14;;;;;;;26.45;14.27;;;16.40;99.90;;;;;;4959641;28;20027;-81
2023/10/12 05:16:42;;;;;;;29.70;15.52;;;16.40;99.90;;;;;;4969577;28;20503;-80
2023/10/12 05:19:10;;;;;;;32.40;16.95;;;16.40;99.90;;;;;;4971620;28;21306;-81
2023/10/12 05:21:36;;;;;;;34.17;21.30;;;16.40;99.90;;;;;;4968865;28;20036;-81
2023/10/12 05:24:01;;;;;;;34.00;21.17;;;16.40;99.90;;;;;;4950135;28;20045;-80
2023/10/12 05:26:27;;;;;;;34.50;21.30;;;16.40;99.90;;;;;;4965552;28;20039;-81
2023/10/12 05:31:39;;;;;;;37.53;23.45;;;16.40;99.90;;;;;;4977322;28;20041;-81
2023/10/12 05:34:52;;;;;;;42.38;25.48;;;16.40;99.90;;;;;;4986484;28;20022;-79
2023/10/12 05:36:54;;;;;;;42.08;25.35;;;16.40;99.90;;;;;;4948949;28;20035;-79
2023/10/12 05:39:22;;;;;;;38.38;24.20;;;16.40;99.90;;;;;;4955612;28;20034;-80
2023/10/12 05:41:47;;;;;;;43.53;25.98;;;16.40;99.90;;;;;;4976869;28;20027;-81
2023/10/12 05:44:15;;;;;;;50.03;31.27;;;16.40;99.90;;;;;;4976379;28;20030;-80
2023/10/12 05:46:44;;;;;;;40.08;27.15;;;16.40;99.90;;;;;;4976603;28;20058;-80
2023/10/12 05:49:13;;;;;;;42.60;28.35;;;16.40;99.90;;;;;;4976227;28;20032;-83
2023/10/12 05:51:44;;;;;;;49.25;30.88;;;16.40;99.90;;;;;;4959422;28;20046;-82
2023/10/12 05:54:15;;;;;;;50.13;30.65;;;16.40;99.90;;;;;;4977159;28;20053;-84
2023/10/12 05:56:41;;;;;;;54.47;31.77;;;16.40;99.90;;;;;;4959130;28;20023;-82
2023/10/12 05:59:12;;;;;;;57.75;35.25;;;16.40;99.90;;;;;;4972929;28;20049;-82
2023/10/12 06:01:38;;;;;;;57.45;35.35;;;16.30;99.90;;;;;;4956927;28;20038;-82
2023/10/12 06:04:08;;;;;;;56.65;34.97;;;16.30;99.90;;;;;;4959090;28;20027;-83
2023/10/12 06:06:41;;;;;;;48.42;33.45;;;16.30;99.90;;;;;;4976376;28;20062;-81
2023/10/12 06:09:41;;;;;;;53.70;35.70;;;16.30;99.90;;;;;;4956356;28;20046;-82
2023/10/12 06:11:59;;;;;;;49.58;33.47;;;16.30;99.90;;;;;;4973576;28;20432;-83
2023/10/12 06:14:25;;;;;;;52.90;34.30;;;16.30;99.90;;;;;;4958728;28;20093;-84
2023/10/12 06:17:27;;;;;;;52.72;33.70;;;16.30;99.90;;;;;;4975647;28;20039;-83
2023/10/12 06:19:37;;;;;;;49.92;32.40;;;16.30;99.90;;;;;;4976004;28;20201;-84
2023/10/12 06:22:23;;;;;;;54.90;34.50;;;16.30;99.90;;;;;;4966314;28;20531;-83
2023/10/12 06:24:52;;;;;;;49.13;30.70;;;16.30;99.90;;;;;;4956362;29;20145;-83
2023/10/12 06:29:44;;;;;;;35.92;22.10;;;16.30;99.90;;;;;;4957041;29;20027;-82
2023/10/12 06:32:17;;;;;;;28.40;18.15;;;16.30;99.90;;;;;;4956396;29;20142;-83
2023/10/12 06:35:13;;;;;;;20.73;12.40;;;16.30;99.90;;;;;;4956494;29;20383;-83
2023/10/12 06:45:52;;;;;;;4.88;1.75;;;16.00;99.90;;;;;;4956702;29;20038;-83
2023/10/12 06:51:06;;;;;;;4.50;1.40;;;15.70;99.90;;;;;;4956548;29;20062;-84
2023/10/12 06:53:36;;;;;;;5.85;1.15;;;15.60;99.90;;;;;;4955228;29;20067;-84
2023/10/12 06:59:10;;;;;;;7.28;1.33;;;15.40;99.90;;;;;;4954889;29;20057;-82
2023/10/12 07:01:38;;;;;;;6.57;1.27;;;15.30;99.90;;;;;;4954526;29;20480;-83
2023/10/12 07:04:15;;;;;;;6.82;1.30;;;15.30;99.90;;;;;;4955919;29;20189;-82
2023/10/12 07:06:56;;;;;;;6.40;1.25;;;15.20;99.90;;;;;;4956059;29;20035;-83
2023/10/12 07:09:46;;;;;;;5.53;1.25;;;15.20;99.90;;;;;;4954637;29;20035;-83
2023/10/12 07:12:20;;;;;;;3.58;1.00;;;15.20;99.90;;;;;;4938467;29;20050;-83
2023/10/12 07:14:55;;;;;;;4.78;1.00;;;15.10;99.90;;;;;;4955212;29;20507;-83
2023/10/12 07:17:32;;;;;;;3.60;0.85;;;15.10;99.90;;;;;;4955636;29;20042;-83
2023/10/12 07:19:58;;;;;;;2.42;0.77;;;15.10;99.90;;;;;;4938524;29;20031;-83
2023/10/12 07:22:23;;;;;;;3.53;0.93;;;15.10;99.90;;;;;;4955579;29;20042;-82
2023/10/12 07:24:53;;;;;;;5.68;1.10;;;15.10;99.90;;;;;;4955466;29;21725;-83
2023/10/12 07:27:26;;;;;;;3.95;1.00;;;15.10;99.90;;;;;;4955964;29;20032;-83
2023/10/12 07:30:10;;;;;;;3.60;0.90;;;15.10;99.90;;;;;;4952153;29;20047;-83
2023/10/12 07:32:39;;;;;;;3.75;0.77;;;15.10;99.90;;;;;;4955392;28;20031;-83
2023/10/12 07:35:53;;;;;;;3.50;1.00;;;15.00;99.90;;;;;;4955146;29;20396;-83
2023/10/12 07:37:52;;;;;;;5.20;1.20;;;15.10;99.90;;;;;;4938722;29;20102;-83
2023/10/12 07:40:18;;;;;;;6.38;1.08;;;15.10;99.90;;;;;;4954078;29;20039;-83
2023/10/12 07:42:49;;;;;;;4.38;1.13;;;15.10;99.90;;;;;;4956085;29;20031;-82
2023/10/12 07:45:27;;;;;;;6.75;1.48;;;15.10;99.90;;;;;;4957924;29;20064;-80
2023/10/12 07:48:09;;;;;;;5.90;1.20;;;15.10;99.90;;;;;;4902217;29;20042;-80
2023/10/12 07:50:50;;;;;;;5.90;1.33;;;15.10;99.90;;;;;;4904774;29;20056;-81
2023/10/12 07:53:25;;;;;;;6.90;1.27;;;15.10;99.90;;;;;;4888777;29;20033;-81
2023/10/12 07:55:53;;;;;;;4.20;1.40;;;15.10;99.90;;;;;;4884613;29;20044;-80
2023/10/12 07:58:21;;;;;;;7.70;1.95;;;15.20;99.90;;;;;;4899011;29;20073;-81
2023/10/12 08:01:19;;;;;;;3.65;1.42;;;15.10;99.90;;;;;;4897966;29;20036;-80
2023/10/12 08:03:50;;;;;;;3.72;1.33;;;15.20;99.90;;;;;;4897543;29;20041;-81
2023/10/12 08:11:45;;;;;;;4.15;1.38;;;15.20;99.90;;;;;;4896427;29;20036;-81
2023/10/12 08:14:39;;;;;;;4.05;1.50;;;15.20;99.90;;;;;;4896225;29;20452;-80
2023/10/12 08:19:43;;;;;;;3.10;0.88;;;15.20;99.90;;;;;;4939807;29;20106;-81
2023/10/12 08:22:31;;;;;;;2.47;0.90;;;15.20;99.90;;;;;;4954722;29;20373;-81
2023/10/12 08:24:58;;;;;;;5.78;0.90;;;15.20;99.90;;;;;;4954007;29;20035;-81
2023/10/12 08:27:25;;;;;;;3.20;0.90;;;15.30;99.90;;;;;;4953396;29;20058;-80
2023/10/12 08:37:26;;;;;;;5.38;0.85;;;15.30;99.90;;;;;;4955160;29;20035;-80
2023/10/12 08:44:51;;;;;;;1.98;0.52;;;15.30;99.90;;;;;;4956400;28;20511;-82
2023/10/12 08:47:26;;;;;;;2.28;0.50;;;15.30;99.90;;;;;;4941361;29;20039;-80
2023/10/12 08:52:38;;;;;;;2.42;0.55;;;15.40;99.90;;;;;;4931106;29;20038;-81
2023/10/12 08:55:14;;;;;;;2.28;0.50;;;15.40;99.90;;;;;;4961138;29;20109;-81
2023/10/12 08:57:52;;;;;;;1.63;0.45;;;15.40;99.90;;;;;;4956550;29;20039;-82
2023/10/12 09:00:38;;;;;;;1.58;0.55;;;15.40;99.90;;;;;;4956932;29;20058;-79
2023/10/12 09:05:58;;;;;;;1.63;0.50;;;15.40;99.90;;;;;;4959587;29;20038;-81
2023/10/12 09:08:39;;;;;;;2.05;0.50;;;15.40;99.90;;;;;;4960986;29;20031;-82
2023/10/12 09:13:35;;;;;;;1.85;0.52;;;15.40;99.90;;;;;;4960833;29;20090;-81
2023/10/12 09:16:11;;;;;;;1.77;0.50;;;15.40;99.90;;;;;;4960880;29;20031;-82
2023/10/12 09:18:44;;;;;;;1.20;0.40;;;15.40;99.90;;;;;;4959981;29;20492;-81
2023/10/12 09:24:14;;;;;;;1.33;0.40;;;15.40;99.90;;;;;;4959531;29;20039;-81
2023/10/12 09:26:58;;;;;;;1.77;0.40;;;15.40;99.90;;;;;;4943138;29;20054;-80
2023/10/12 09:29:42;;;;;;;1.38;0.30;;;15.40;99.90;;;;;;4926995;29;20066;-81
2023/10/12 09:32:24;;;;;;;1.63;0.40;;;15.40;99.90;;;;;;4957411;29;20055;-81
2023/10/12 09:37:28;;;;;;;2.63;0.80;;;15.40;99.90;;;;;;4959436;29;20403;-81
2023/10/12 09:39:55;;;;;;;3.17;0.90;;;15.40;99.90;;;;;;4940227;29;20038;-81
2023/10/12 09:42:27;;;;;;;2.20;0.80;;;15.40;99.90;;;;;;4956226;29;20090;-81
2023/10/12 09:45:01;;;;;;;2.42;1.02;;;15.50;99.90;;;;;;4940460;29;20118;-80
2023/10/12 09:47:43;;;;;;;;;;;15.50;99.90;;;;;;4941226;29;20035;-80
2023/10/12 09:50:40;;;;;;;2.25;0.60;;;15.50;99.90;;;;;;4955160;29;20259;-79
2023/10/12 09:53:21;;;;;;;2.42;0.60;;;15.50;99.90;;;;;;4956089;29;20039;-79
2023/10/12 09:56:45;;;;;;;2.53;0.60;;;15.60;99.90;;;;;;4939387;28;20050;-80
2023/10/12 09:58:51;;;;;;;2.78;1.05;;;15.60;99.90;;;;;;4951770;29;20036;-80
2023/10/12 10:01:22;;;;;;;;;;;15.60;99.90;;;;;;4940598;29;20043;-79
2023/10/12 10:03:50;;;;;;;1.38;0.50;;;15.60;99.90;;;;;;4957422;29;20280;-80
2023/10/12 10:06:37;;;;;;;1.50;0.68;;;15.60;99.90;;;;;;4956991;29;20057;-79
2023/10/12 10:09:19;;;;;;;1.67;0.60;;;15.60;99.90;;;;;;4939353;29;20019;-80
2023/10/12 10:11:46;;;;;;;2.25;0.80;;;15.60;99.90;;;;;;4956981;29;20098;-79
2023/10/12 10:14:20;;;;;;;2.63;0.70;;;15.60;99.90;;;;;;4957294;29;20055;-79
2023/10/12 10:16:46;;;;;;;1.20;0.60;;;15.60;99.90;;;;;;4957173;29;20062;-79
2023/10/12 10:19:16;;;;;;;1.88;0.73;;;15.60;99.90;;;;;;4956995;29;20039;-79
2023/10/12 10:21:51;;;;;;;1.50;0.60;;;15.60;99.90;;;;;;4956510;29;20035;-80
2023/10/12 10:24:24;;;;;;;3.28;0.77;;;15.70;99.90;;;;;;4939430;29;20381;-79
2023/10/12 10:26:58;;;;;;;2.50;1.10;;;15.70;99.90;;;;;;4957256;29;20047;-80
2023/10/12 10:29:45;;;;;;;4.25;0.70;;;15.70;99.90;;;;;;4956616;29;20547;-79
2023/10/12 10:32:17;;;;;;;1.67;0.70;;;15.80;99.90;;;;;;4956408;29;20030;-79
2023/10/12 10:34:43;;;;;;;1.95;0.95;;;15.80;99.90;;;;;;4956946;29;20030;-79
2023/10/12 10:37:11;;;;;;;1.77;0.70;;;15.90;99.90;;;;;;4956521;29;20119;-80
2023/10/12 10:39:38;;;;;;;2.50;0.98;;;15.90;99.90;;;;;;4956284;29;20041;-80
2023/10/12 10:42:07;;;;;;;3.35;1.10;;;15.90;99.90;;;;;;4956008;29;20035;-80
2023/10/12 10:44:45;;;;;;;2.65;1.17;;;15.90;99.90;;;;;;4956029;29;20430;-80
2023/10/12 10:47:15;;;;;;;2.30;1.13;;;16.00;99.90;;;;;;4956185;29;20042;-80
2023/10/12 10:49:45;;;;;;;3.35;1.40;;;16.00;99.90;;;;;;4938488;29;20024;-80
2023/10/12 10:52:14;;;;;;;2.25;1.08;;;16.10;99.90;;;;;;4955807;29;20122;-80
2023/10/12 10:54:56;;;;;;;3.25;1.55;;;16.10;99.90;;;;;;4955715;29;20540;-79
2023/10/12 10:57:31;;;;;;;4.05;1.60;;;16.10;99.90;;;;;;4955719;29;20058;-79
2023/10/12 10:59:56;;;;;;;3.35;1.23;;;16.20;99.90;;;;;;4938506;29;20091;-80
2023/10/12 11:02:22;;;;;;;2.92;1.58;;;16.20;99.90;;;;;;4954616;29;20023;-80
2023/10/12 11:04:51;;;;;;;4.32;2.03;;;16.20;99.90;;;;;;4954367;29;20036;-80
2023/10/12 11:07:20;;;;;;;4.88;1.73;;;16.30;99.90;;;;;;4938147;28;20051;-80
2023/10/12 11:12:17;;;;;;;4.32;2.08;;;16.40;99.90;;;;;;4956608;29;20031;-80
2023/10/12 11:15:05;;;;;;;5.05;2.03;;;16.40;99.90;;;;;;4956055;29;20039;-80
2023/10/12 11:17:40;;;;;;;5.15;2.35;;;16.50;99.90;;;;;;4956235;29;20035;-80
2023/10/12 11:20:27;;;;;;;6.60;2.72;;;16.50;99.90;;;;;;4956387;29;20555;-80
2023/10/12 11:22:57;;;;;;;5.15;2.78;;;16.60;99.90;;;;;;4942964;29;20099;-80
2023/10/12 11:25:26;;;;;;;6.82;3.15;;;16.60;99.90;;;;;;4955762;29;20095;-81
2023/10/12 11:27:53;;;;;;;7.25;2.67;;;16.60;99.90;;;;;;4956793;29;20042;-80
2023/10/12 11:30:35;;;;;;;5.43;3.10;;;16.70;99.90;;;;;;4957419;29;20114;-80
2023/10/12 11:33:09;;;;;;;6.70;3.63;;;16.70;99.90;;;;;;4960995;29;20096;-81
2023/10/12 11:35:40;;;;;;;7.13;3.47;;;16.80;99.90;;;;;;4963116;29;20512;-81
2023/10/12 11:38:19;;;;;;;6.65;3.53;;;16.80;99.90;;;;;;4956516;29;20042;-84
2023/10/12 11:40:58;;;;;;;9.95;4.45;;;16.90;99.90;;;;;;4955588;29;20041;-82
2023/10/12 11:43:49;;;;;;;6.18;3.88;;;16.90;99.90;;;;;;4955630;29;20043;-82
2023/10/12 11:46:15;;;;;;;8.32;3.90;;;16.90;99.90;;;;;;4937929;29;20484;-83
2023/10/12 11:48:41;;;;;;;6.47;4.05;;;17.00;99.90;;;;;;4955307;29;20090;-83
2023/10/12 11:51:11;;;;;;;7.78;4.55;;;17.00;99.90;;;;;;4954906;29;20039;-82
2023/10/12 11:53:38;;;;;;;8.13;4.78;;;17.00;99.90;;;;;;4937798;29;20118;-83
2023/10/12 11:56:13;;;;;;;9.70;5.18;;;17.00;99.90;;;;;;4955261;29;20035;-83
2023/10/12 11:58:48;;;;;;;7.22;4.50;;;17.00;99.90;;;;;;4953940;29;20043;-83
2023/10/12 12:01:14;;;;;;;8.48;5.20;;;17.00;99.90;;;;;;4937915;29;20118;-83
2023/10/12 12:03:40;;;;;;;9.15;5.47;;;17.00;99.90;;;;;;4955182;29;20042;-82
2023/10/12 12:06:18;;;;;;;11.05;5.82;;;16.90;99.90;;;;;;4956831;29;20031;-81
2023/10/12 12:08:45;;;;;;;9.75;6.05;;;17.00;99.90;;;;;;4966201;29;20032;-80
2023/10/12 12:11:13;;;;;;;8.35;5.03;;;16.90;99.90;;;;;;4962556;29;20059;-81
2023/10/12 12:13:47;;;;;;;8.27;5.78;;;16.90;99.90;;;;;;4961088;29;20470;-81
2023/10/12 12:16:19;;;;;;;9.55;6.32;;;16.90;99.90;;;;;;4956773;29;20098;-81
2023/10/12 12:18:52;;;;;;;10.82;7.13;;;16.90;99.90;;;;;;4961178;28;20043;-81
2023/10/12 12:21:29;;;;;;;10.43;6.55;;;17.00;99.90;;;;;;4932118;29;20042;-81
2023/10/12 12:24:44;;;;;;;10.80;6.85;;;17.00;99.90;;;;;;4945413;29;20042;-81
2023/10/12 12:26:58;;;;;;;9.00;6.28;;;17.00;99.90;;;;;;4947862;29;20437;-81
2023/10/12 12:29:31;;;;;;;11.05;7.05;;;17.10;99.90;;;;;;4958608;29;20036;-80
2023/10/12 12:31:57;;;;;;;10.43;7.00;;;17.10;99.90;;;;;;4959220;29;20043;-81
2023/10/12 12:34:41;;;;;;;11.73;8.18;;;17.20;99.90;;;;;;4957411;29;20493;-81
2023/10/12 12:37:17;;;;;;;11.25;7.78;;;17.20;99.90;;;;;;4957890;29;20034;-81
2023/10/12 12:39:43;;;;;;;10.98;7.13;;;17.20;99.90;;;;;;4957704;29;20509;-81
2023/10/12 12:42:11;;;;;;;11.27;7.25;;;17.20;99.90;;;;;;4957881;29;20050;-79
2023/10/12 12:44:42;;;;;;;11.32;7.07;;;17.30;99.90;;;;;;4959278;29;20050;-81
2023/10/12 12:47:24;;;;;;;11.52;7.95;;;17.30;99.90;;;;;;4958351;29;20047;-82
2023/10/12 12:50:13;;;;;;;10.82;7.50;;;17.20;99.90;;;;;;4892996;29;20111;-79
2023/10/12 12:52:46;;;;;;;12.80;7.93;;;17.20;99.90;;;;;;4933635;29;20047;-79
2023/10/12 12:55:25;;;;;;;12.55;8.18;;;17.30;99.90;;;;;;4937335;29;20047;-83
2023/10/12 12:57:52;;;;;;;11.82;8.35;;;17.30;99.90;;;;;;4955214;29;20057;-79
2023/10/12 13:00:21;;;;;;;13.75;9.68;;;17.30;99.90;;;;;;4954171;29;20054;-80
2023/10/12 13:02:52;;;;;;;14.05;8.77;;;17.30;99.90;;;;;;4938692;29;20043;-81
2023/10/12 13:05:18;;;;;;;13.05;9.05;;;17.30;99.90;;;;;;4937202;29;20087;-81
2023/10/12 13:07:47;;;;;;;11.52;8.07;;;17.30;99.90;;;;;;4938273;29;20067;-81
2023/10/12 13:10:15;;;;;;;15.52;10.77;;;17.30;99.90;;;;;;4952924;29;20027;-81
2023/10/12 13:12:41;;;;;;;12.95;8.73;;;17.30;99.90;;;;;;4956881;29;20045;-81
2023/10/12 13:15:09;;;;;;;17.85;11.00;;;17.30;99.90;;;;;;4957106;29;20122;-80
2023/10/12 13:17:39;;;;;;;15.65;10.57;;;17.30;99.90;;;;;;4955165;29;20039;-81
2023/10/12 13:20:07;;;;;;;14.85;10.52;;;17.30;99.90;;;;;;4937700;29;20092;-81
2023/10/12 13:22:33;;;;;;;15.60;10.07;;;17.30;99.90;;;;;;4938095;28;20046;-81
2023/10/12 13:24:59;;;;;;;15.32;9.93;;;17.30;99.90;;;;;;4973808;28;20169;-81
2023/10/12 13:27:29;;;;;;;15.68;10.52;;;17.30;99.90;;;;;;4956011;28;20078;-81
2023/10/12 13:30:00;;;;;;;18.90;11.27;;;17.30;99.90;;;;;;4972464;28;20043;-81
2023/10/12 13:32:26;;;;;;;17.45;11.10;;;17.30;99.90;;;;;;4977350;28;20038;-81
2023/10/12 13:34:57;;;;;;;16.42;10.48;;;17.30;99.90;;;;;;4979289;28;20030;-81
2023/10/12 13:37:30;;;;;;;18.83;10.55;;;17.40;99.90;;;;;;4964029;28;20061;-80
2023/10/12 13:39:57;;;;;;;15.35;10.35;;;17.30;99.90;;;;;;4977764;28;20368;-82
2023/10/12 13:42:23;;;;;;;14.15;10.55;;;17.40;99.90;;;;;;4976858;28;20023;-82
2023/10/12 13:44:50;;;;;;;15.82;10.82;;;17.30;99.90;;;;;;4976944;28;20452;-82
2023/10/12 13:47:16;;;;;;;16.73;11.00;;;17.40;99.90;;;;;;4976550;28;20035;-81
2023/10/12 13:49:42;;;;;;;16.48;10.35;;;17.40;99.90;;;;;;4976475;28;20479;-82
2023/10/12 13:52:12;;;;;;;16.73;10.55;;;17.40;99.90;;;;;;4973970;28;20534;-81
2023/10/12 13:54:42;;;;;;;13.70;9.45;;;17.40;99.90;;;;;;4976594;28;20035;-81
2023/10/12 13:57:08;;;;;;;17.85;10.88;;;17.30;99.90;;;;;;4959229;28;20121;-81
2023/10/12 13:59:37;;;;;;;16.20;10.55;;;17.30;99.90;;;;;;4976496;28;20122;-81
2023/10/12 14:02:05;;;;;;;18.75;10.98;;;17.30;99.90;;;;;;4959017;28;20066;-81
2023/10/12 14:04:33;;;;;;;14.70;10.57;;;17.30;99.90;;;;;;4976325;28;20023;-81
2023/10/12 14:07:03;;;;;;;20.13;10.50;;;17.30;99.90;;;;;;4976151;28;20039;-81
2023/10/12 14:09:31;;;;;;;15.85;9.80;;;17.30;99.90;;;;;;4976115;28;20042;-81
2023/10/12 14:11:57;;;;;;;17.52;10.52;;;17.30;99.90;;;;;;4976381;28;20030;-81
2023/10/12 14:14:27;;;;;;;14.77;10.20;;;17.20;99.90;;;;;;4976082;28;20429;-82
2023/10/12 14:16:52;;;;;;;16.73;10.77;;;17.20;99.90;;;;;;4975887;28;20035;-80
2023/10/12 14:19:24;;;;;;;17.70;11.40;;;17.20;99.90;;;;;;4976242;28;20484;-81
2023/10/12 14:21:52;;;;;;;19.15;11.93;;;17.20;99.90;;;;;;4976064;28;20027;-81
2023/10/12 14:24:23;;;;;;;20.00;10.95;;;17.20;99.90;;;;;;4976111;28;20122;-82
2023/10/12 14:26:49;;;;;;;20.77;11.98;;;17.10;99.90;;;;;;4976196;28;20034;-82
2023/10/12 14:29:18;;;;;;;15.43;11.27;;;17.10;99.90;;;;;;4958776;28;20035;-82
2023/10/12 14:31:45;;;;;;;19.20;11.68;;;17.00;99.90;;;;;;4958597;28;20035;-82
2023/10/12 14:34:14;;;;;;;18.48;12.57;;;17.00;99.90;;;;;;4975620;28;20086;-81
2023/10/12 14:36:40;;;;;;;19.17;12.60;;;17.00;99.90;;;;;;4976258;28;20030;-82
2023/10/12 14:39:13;;;;;;;17.50;13.20;;;16.90;99.90;;;;;;4976247;28;20067;-80
2023/10/12 14:41:39;;;;;;;21.92;13.20;;;16.90;99.90;;;;;;4976330;28;20039;-82
2023/10/12 14:44:05;;;;;;;20.27;13.80;;;16.90;99.90;;;;;;4975035;28;20480;-80
2023/10/12 14:46:31;;;;;;;21.45;13.80;;;16.90;99.90;;;;;;4975886;28;20033;-81
2023/10/12 14:49:01;;;;;;;20.73;12.77;;;16.80;99.90;;;;;;4974288;28;20510;-81
2023/10/12 14:51:29;;;;;;;21.80;14.52;;;16.90;99.90;;;;;;4975564;28;20055;-82
2023/10/12 14:53:56;;;;;;;21.52;13.27;;;16.90;99.90;;;;;;4975840;28;20034;-81